Local Weather Ingen bokad jour idag Monday 21st of October
Flygplats METAR TAF
Airport METAR TAF
ESSL - Linköping202220Z AUTO 22003KT 180V240 9999 FEW027/// 08/08 Q1014= 201930Z 2020/2022 20003KT CAVOK BECMG 2020/2022 0200 FG VV002=
ESSP - Norrköping202220Z AUTO 30001KT 0250 R09/1200D R27/1200D FG VV000 03/03 Q1014= NO VALID TAF PUBLISHED
ESGJ - Jönköping202220Z AUTO 22004KT 4900 BR OVC012/// 07/07 Q1014= NO VALID TAF PUBLISHED
ESKN - Skavsta202220Z 26003KT 3000 R08/P2000D R26/P2000N BCFG FEW022 BKN040 06/06 Q1014= 201730Z 2018/2118 27003KT 9999 MIFG NSC PROB40 2018/2021 0800 BCFG TEMPO 2021/2024 0500 FG VV002 BECMG 2100/2102 1400 BR OVC003 TEMPO 2102/2106 5000 NSW BKN008 BECMG 2106/2108 9999 NSW SCT010 BKN030 TEMPO 2108/2115 BKN008=
ESSV - Visby202220Z AUTO 27004KT 2500 SCT003/// OVC016/// 11/11 Q1014= AMD 201800Z 2018/2022 22005KT 0300 FG VV002 PROB40 2018/2022 5000 SCT002 BKN030=
ESGG - Göteborg202220Z 22005KT 0150 R03/0350N R21/0300N FG VV002 09/08 Q1015= 201730Z 2018/2118 20004KT 9999 SCT010 PROB40 2018/2021 4000 -SHRA BR BKN008 SCT020CB BECMG 2021/2023 0500 FG VV002 PROB40 2023/2106 5000 NSW SCT005 BECMG 2106/2108 9999 NSW BKN015 TEMPO 2108/2112 BKN008=
FLEET STATUS
Flygplan Tid till service Tid till flygstopp Flygtid Landningar
Aircraft Time to service Time to stop Total time Landings
SE-IUD27.9 h32.9 h11 722.1 h23 539 st.
SE-KIT45.0 h55.0 h11 955.0 h22 959 st.
SE-KMH36.8 h46.8 h16 063.2 h60 070 st.
SE-LRL24.5 h29.5 h775.5 h1 383 st.
SE-MEB45.4 h55.4 h1 454.6 h4 369 st.
SE-SIMN/AN/A1 192.2 h85 st.
PPR
Ankomst Avgång Flygplan Namn Bränsle
Arrival Departure Aircraft Name Fuel
15/10 14:4521/10 12:00OH-U573Kimmo HantulaInget
NOTAM
>>> ESSL/LINKOPING/SAAB <<<
+ AERODROME CONTROL TOWER (TWR) HOURS OF SERVICE ARE NOW MON-FRI 0345-2115, SAT 0345-0445 1500-1630 2015-2115, SUN 0445-0545 1000-1115 1630-1745 2115-2215 FROM: 21 OCT 2019 00:00 TO: 27 OCT 2019 23:59 ES/B3038/19 - AERODROME CONTROL TOWER (TWR) HOURS OF SERVICE ARE NOW MON-FRI 0345-2115 SAT 0345-0445 1500-1630 2015-2115, SUN 0345-0445 1400-1530 2015-2115 FROM: 02 SEP 2019 00:00 TO: 20 OCT 2019 23:59 ES/B2465/19 - ATTENTION UNMANNED AIRCRAFT. ADDITION TO REGULATION TSFS 2017 110. THE LIMITATIONS IN REGULATION TSFS 2017 110 CHAPTER 3 PARAGRPH 3 APPLIES EVEN THOUGH THE AIRPORT IS CLOSED AND SAAB AND MALMEN CTR ARE NOT ESTABLISHED. FROM: 02 SEP 2019 08:32 TO: 02 DEC 2019 10:00 EST ES/B2934/19 - RNP RWY 29: MT TAA VIA SL 540 SHALL BE 197 DEG. REF ESSL 5-9 DATED 15 AUG 2019 FROM: 26 AUG 2019 10:50 TO: PERM ES/B2837/19
>>> ESCF/LINKOPING/MALMEN <<<